^^
Your Local Weather - Clay, NY Station Historical Data
Daily Summary for October 6, 2017 Units:  English    Metric   Both
« Previous Day
Next Day »
Daily Weekly Monthly Yearly Custom
  High: Low: Average:
Temperature: 64.7 °F 51.9 °F 58.5 °F
Dew Point: 59.7 °F 49.9 °F 55.5 °F
Humidity: 94% 82% 90%
Wind Speed: 2.0mph 0.0mph 0.3mph
Wind Gust: 4.0mph - -
Wind- - SW
Pressure: 30.08 in 30.00 in -
Precipitation: 0.05 in    
Historical Graphs
 
 
Tabular Data for October 6, 2017
Time Temperature Dew Point Pressure Wind Wind Speed Wind Gust Humidity Rainfall Rate (Hourly) solar
00:00 52.0 °F 50.0 °F 30.03 in Calm     93% 0.00 in 0 W/m2
00:06 51.9 °F 49.9 °F 30.03 in Calm     93% 0.00 in 0 W/m2
00:12 52.1 °F 50.1 °F 30.03 in Calm   2.0 mph 93% 0.00 in 0 W/m2
00:18 52.5 °F 50.5 °F 30.03 in Calm   2.0 mph 93% 0.00 in 0 W/m2
00:30 52.9 °F 50.9 °F 30.02 in Calm     93% 0.00 in 0 W/m2
00:36 52.8 °F 50.8 °F 30.03 in Calm     93% 0.00 in 0 W/m2
00:42 52.8 °F 50.8 °F 30.03 in Calm     93% 0.00 in 0 W/m2
00:48 52.8 °F 50.8 °F 30.03 in Calm     93% 0.00 in 0 W/m2
00:54 52.8 °F 50.8 °F 30.03 in Calm     93% 0.00 in 0 W/m2
01:00 52.8 °F 50.8 °F 30.03 in Calm     93% 0.00 in 0 W/m2
01:12 52.8 °F 50.8 °F 30.03 in Calm     93% 0.00 in 0 W/m2
01:18 52.7 °F 50.7 °F 30.03 in Calm     93% 0.00 in 0 W/m2
01:24 52.6 °F 50.6 °F 30.03 in Calm     93% 0.00 in 0 W/m2
01:30 52.6 °F 50.6 °F 30.03 in Calm     93% 0.00 in 0 W/m2
01:36 52.5 °F 50.5 °F 30.04 in Calm     93% 0.00 in 0 W/m2
01:42 52.4 °F 50.4 °F 30.03 in Calm     93% 0.00 in 0 W/m2
01:48 52.4 °F 50.4 °F 30.03 in Calm     93% 0.00 in 0 W/m2
01:54 52.5 °F 50.5 °F 30.03 in Calm     93% 0.00 in 0 W/m2
02:00 52.6 °F 50.6 °F 30.03 in Calm     93% 0.00 in 0 W/m2
02:06 53.0 °F 51.0 °F 30.03 in Calm   2.0 mph 93% 0.00 in 0 W/m2
02:12 53.3 °F 51.3 °F 30.03 in Calm     93% 0.00 in 0 W/m2
02:24 54.0 °F 51.7 °F 30.03 in Calm     92% 0.00 in 0 W/m2
02:30 54.3 °F 52.0 °F 30.03 in Calm     92% 0.00 in 0 W/m2
02:36 54.6 °F 52.3 °F 30.02 in Calm     92% 0.00 in 0 W/m2
02:42 54.7 °F 52.4 °F 30.03 in Calm     92% 0.00 in 0 W/m2
02:48 54.7 °F 52.4 °F 30.03 in Calm     92% 0.00 in 0 W/m2
03:00 54.5 °F 51.9 °F 30.03 in Calm     91% 0.00 in 0 W/m2
03:06 54.4 °F 51.8 °F 30.02 in Calm     91% 0.00 in 0 W/m2
03:18 54.2 °F 51.6 °F 30.02 in Calm     91% 0.00 in 0 W/m2
03:24 54.1 °F 51.5 °F 30.02 in Calm     91% 0.00 in 0 W/m2
03:30 54.1 °F 51.5 °F 30.02 in Calm     91% 0.00 in 0 W/m2
03:36 54.1 °F 51.5 °F 30.02 in Calm     91% 0.00 in 0 W/m2
03:42 54.3 °F 51.7 °F 30.02 in Calm     91% 0.00 in 0 W/m2
03:48 54.3 °F 51.7 °F 30.02 in Calm     91% 0.00 in 0 W/m2
03:54 54.3 °F 51.7 °F 30.03 in Calm     91% 0.00 in 0 W/m2
04:00 54.2 °F 51.6 °F 30.03 in Calm     91% 0.00 in 0 W/m2
04:06 54.4 °F 51.8 °F 30.03 in Calm     91% 0.00 in 0 W/m2
04:12 54.4 °F 51.8 °F 30.03 in Calm     91% 0.00 in 0 W/m2
04:18 54.5 °F 51.9 °F 30.03 in Calm     91% 0.00 in 0 W/m2
04:24 54.6 °F 52.0 °F 30.03 in Calm     91% 0.00 in 0 W/m2
04:30 54.8 °F 52.5 °F 30.04 in Calm     92% 0.00 in 0 W/m2
04:36 54.8 °F 52.2 °F 30.04 in Calm     91% 0.00 in 0 W/m2
04:42 54.8 °F 52.2 °F 30.05 in Calm     91% 0.00 in 0 W/m2
04:48 54.9 °F 52.3 °F 30.05 in Calm     91% 0.00 in 0 W/m2
04:54 55.0 °F 52.4 °F 30.05 in Calm     91% 0.00 in 0 W/m2
05:00 54.9 °F 52.3 °F 30.05 in Calm     91% 0.00 in 0 W/m2
05:06 55.0 °F 52.4 °F 30.05 in Calm     91% 0.00 in 0 W/m2
05:12 54.9 °F 52.3 °F 30.05 in Calm     91% 0.00 in 0 W/m2
05:18 54.9 °F 52.3 °F 30.04 in Calm     91% 0.00 in 0 W/m2
05:24 54.9 °F 52.3 °F 30.04 in Calm     91% 0.00 in 0 W/m2
05:30 54.8 °F 52.2 °F 30.04 in Calm     91% 0.00 in 0 W/m2
05:36 54.8 °F 52.2 °F 30.04 in Calm     91% 0.00 in 0 W/m2
05:42 54.8 °F 52.2 °F 30.05 in Calm     91% 0.00 in 0 W/m2
05:52 54.8 °F 52.2 °F 30.05 in Calm     91% 0.00 in 0 W/m2
05:58 55.0 °F 52.4 °F 30.05 in Calm     91% 0.00 in 0 W/m2
06:04 55.0 °F 52.4 °F 30.05 in Calm     91% 0.00 in 0 W/m2
06:10 54.9 °F 52.3 °F 30.05 in Calm     91% 0.00 in 0 W/m2
06:16 54.8 °F 52.2 °F 30.04 in Calm     91% 0.00 in 0 W/m2
06:22 54.5 °F 51.9 °F 30.04 in Calm     91% 0.00 in 0 W/m2
06:28 54.2 °F 51.6 °F 30.04 in Calm     91% 0.00 in 0 W/m2
06:34 53.9 °F 51.3 °F 30.04 in Calm     91% 0.00 in 0 W/m2
06:40 53.8 °F 51.2 °F 30.04 in Calm     91% 0.00 in 0 W/m2
06:46 53.4 °F 50.8 °F 30.04 in Calm     91% 0.00 in 0 W/m2
06:52 53.2 °F 50.6 °F 30.04 in Calm     91% 0.00 in 0 W/m2
06:58 53.1 °F 50.8 °F 30.03 in Calm     92% 0.00 in 0 W/m2
07:04 53.0 °F 50.7 °F 30.03 in Calm     92% 0.00 in 0 W/m2
07:10 52.9 °F 50.6 °F 30.05 in Calm     92% 0.00 in 0 W/m2
07:16 52.8 °F 50.5 °F 30.05 in Calm     92% 0.00 in 0 W/m2
07:22 52.8 °F 50.5 °F 30.05 in Calm     92% 0.00 in 0 W/m2
07:28 52.8 °F 50.5 °F 30.05 in Calm   1.0 mph 92% 0.00 in 5 W/m2
07:34 53.0 °F 51.0 °F 30.04 in Calm     93% 0.00 in 7 W/m2
07:40 53.3 °F 51.3 °F 30.04 in Calm     93% 0.00 in 9 W/m2
07:46 53.5 °F 51.5 °F 30.04 in Calm     93% 0.00 in 21 W/m2
07:52 53.6 °F 51.6 °F 30.04 in Calm     93% 0.00 in 26 W/m2
07:58 53.8 °F 51.8 °F 30.05 in Calm     93% 0.00 in 21 W/m2
08:04 54.0 °F 52.0 °F 30.06 in Calm     93% 0.00 in 18 W/m2
08:10 54.2 °F 52.2 °F 30.06 in Calm     93% 0.00 in 12 W/m2
08:16 54.4 °F 52.4 °F 30.07 in Calm     93% 0.00 in 12 W/m2
08:22 54.5 °F 52.5 °F 30.07 in Calm     93% 0.00 in 9 W/m2
08:28 54.7 °F 52.7 °F 30.07 in Calm     93% 0.00 in 12 W/m2
08:34 54.9 °F 52.9 °F 30.06 in Calm     93% 0.00 in 16 W/m2
08:40 54.9 °F 52.9 °F 30.07 in Calm     93% 0.00 in 16 W/m2
08:46 55.0 °F 53.0 °F 30.07 in Calm     93% 0.04 in 16 W/m2
08:52 55.0 °F 53.0 °F 30.06 in Calm     93% 0.08 in 19 W/m2
08:58 55.1 °F 53.1 °F 30.07 in Calm     93% 0.07 in 26 W/m2
09:04 55.1 °F 53.1 °F 30.07 in Calm     93% 0.04 in 19 W/m2
09:10 55.2 °F 53.2 °F 30.07 in Calm     93% 0.04 in 19 W/m2
09:16 55.2 °F 53.2 °F 30.07 in Calm     93% 0.04 in 32 W/m2
09:22 55.4 °F 53.4 °F 30.08 in Calm     93% 0.05 in 83 W/m2
09:28 55.7 °F 53.7 °F 30.07 in Calm     93% 0.05 in 100 W/m2
09:34 56.1 °F 54.1 °F 30.08 in Calm     93% 0.04 in 77 W/m2
09:40 56.5 °F 54.8 °F 30.07 in Calm     94% 0.00 in 81 W/m2
09:46 56.7 °F 54.7 °F 30.07 in Calm   1.0 mph 93% 0.00 in 58 W/m2
09:52 56.8 °F 54.8 °F 30.07 in Calm     93% 0.00 in 76 W/m2
09:58 57.0 °F 55.0 °F 30.07 in Calm   1.0 mph 93% 0.00 in 88 W/m2
10:04 57.3 °F 55.3 °F 30.06 in WNW 1.0 mph 2.0 mph 93% 0.00 in 132 W/m2
10:10 57.6 °F 55.6 °F 30.06 in WNW 2.0 mph 2.0 mph 93% 0.00 in 127 W/m2
10:16 57.8 °F 55.8 °F 30.06 in WNW 2.0 mph 2.0 mph 93% 0.00 in 104 W/m2
10:22 58.0 °F 56.0 °F 30.06 in WNW 1.0 mph 1.0 mph 93% 0.00 in 83 W/m2
10:28 58.3 °F 56.3 °F 30.06 in Calm   1.0 mph 93% 0.00 in 97 W/m2
10:34 58.6 °F 56.6 °F 30.06 in Calm   2.0 mph 93% 0.00 in 114 W/m2
10:40 58.7 °F 56.4 °F 30.06 in SW 2.0 mph 2.0 mph 92% 0.00 in 100 W/m2
10:46 58.8 °F 56.5 °F 30.06 in SW 2.0 mph 2.0 mph 92% 0.00 in 109 W/m2
10:52 59.0 °F 56.7 °F 30.06 in SW 1.0 mph 2.0 mph 92% 0.00 in 142 W/m2
10:58 59.3 °F 57.0 °F 30.06 in SW 1.0 mph 3.0 mph 92% 0.00 in 176 W/m2
11:04 59.7 °F 57.4 °F 30.06 in SW 1.0 mph 3.0 mph 92% 0.00 in 171 W/m2
11:10 59.9 °F 57.3 °F 30.06 in SW 1.0 mph 1.0 mph 91% 0.00 in 144 W/m2
11:16 60.1 °F 57.5 °F 30.06 in SW 1.0 mph 3.0 mph 91% 0.00 in 141 W/m2
11:22 60.3 °F 57.7 °F 30.06 in SW 1.0 mph 1.0 mph 91% 0.00 in 134 W/m2
11:28 60.5 °F 57.9 °F 30.06 in Calm   1.0 mph 91% 0.00 in 155 W/m2
11:34 60.8 °F 57.8 °F 30.06 in SW 1.0 mph 3.0 mph 90% 0.00 in 139 W/m2
11:46 60.9 °F 57.6 °F 30.06 in SW 2.0 mph 3.0 mph 89% 0.00 in 107 W/m2
11:52 60.9 °F 57.6 °F 30.06 in SW 2.0 mph 3.0 mph 89% 0.00 in 141 W/m2
11:58 61.2 °F 57.9 °F 30.06 in SW 2.0 mph 3.0 mph 89% 0.00 in 130 W/m2
12:04 61.2 °F 57.6 °F 30.06 in SW 1.0 mph 3.0 mph 88% 0.00 in 114 W/m2
12:10 61.3 °F 58.0 °F 30.06 in Calm   1.0 mph 89% 0.00 in 120 W/m2
12:16 61.3 °F 57.7 °F 30.06 in SW 1.0 mph 1.0 mph 88% 0.00 in 120 W/m2
12:22 61.5 °F 57.9 °F 30.06 in SW 1.0 mph 1.0 mph 88% 0.00 in 134 W/m2
12:28 61.6 °F 58.0 °F 30.06 in Calm   1.0 mph 88% 0.00 in 111 W/m2
12:34 61.6 °F 58.0 °F 30.06 in SW 1.0 mph 3.0 mph 88% 0.00 in 130 W/m2
12:40 61.8 °F 58.2 °F 30.06 in SW 1.0 mph 1.0 mph 88% 0.00 in 102 W/m2
12:46 61.9 °F 58.3 °F 30.06 in Calm   1.0 mph 88% 0.00 in 127 W/m2
12:52 62.0 °F 58.1 °F 30.06 in SW 1.0 mph 1.0 mph 87% 0.00 in 149 W/m2
12:58 62.2 °F 58.6 °F 30.05 in Calm   3.0 mph 88% 0.00 in 214 W/m2
13:04 62.3 °F 58.4 °F 30.05 in SW 1.0 mph 4.0 mph 87% 0.00 in 151 W/m2
13:10 62.4 °F 58.2 °F 30.05 in SW 1.0 mph 2.0 mph 86% 0.00 in 246 W/m2
13:16 62.6 °F 58.4 °F 30.04 in SW 2.0 mph 3.0 mph 86% 0.00 in 206 W/m2
13:22 62.8 °F 58.2 °F 30.04 in SW 1.0 mph 4.0 mph 85% 0.00 in 132 W/m2
13:28 62.9 °F 58.3 °F 30.04 in SW 2.0 mph 4.0 mph 85% 0.00 in 121 W/m2
13:34 62.9 °F 58.3 °F 30.03 in SW 2.0 mph 2.0 mph 85% 0.00 in 121 W/m2
13:40 63.0 °F 58.4 °F 30.03 in SW 1.0 mph 1.0 mph 85% 0.00 in 142 W/m2
13:46 63.2 °F 58.3 °F 30.03 in Calm   1.0 mph 84% 0.00 in 200 W/m2
13:52 63.4 °F 58.5 °F 30.03 in SW 1.0 mph 1.0 mph 84% 0.00 in 169 W/m2
13:58 63.6 °F 58.3 °F 30.03 in SW 1.0 mph 2.0 mph 83% 0.00 in 190 W/m2
14:04 63.9 °F 59.0 °F 30.03 in SW 1.0 mph 1.0 mph 84% 0.00 in 174 W/m2
14:10 64.0 °F 58.4 °F 30.03 in WSW 2.0 mph 2.0 mph 82% 0.00 in 118 W/m2
14:16 63.9 °F 58.6 °F 30.03 in WSW 2.0 mph 2.0 mph 83% 0.00 in 104 W/m2
14:22 63.9 °F 58.3 °F 30.03 in Calm   1.0 mph 82% 0.00 in 90 W/m2
14:28 63.9 °F 58.3 °F 30.03 in WSW 1.0 mph 2.0 mph 82% 0.00 in 70 W/m2
14:40 64.0 °F 58.7 °F 30.03 in Calm     83% 0.00 in 70 W/m2
14:46 64.1 °F 58.8 °F 30.03 in Calm     83% 0.00 in 90 W/m2
14:52 64.2 °F 58.9 °F 30.02 in WSW 1.0 mph 1.0 mph 83% 0.00 in 169 W/m2
14:58 64.3 °F 59.0 °F 30.02 in WSW 1.0 mph 2.0 mph 83% 0.00 in 139 W/m2
15:04 64.3 °F 58.7 °F 30.02 in WSW 1.0 mph 2.0 mph 82% 0.00 in 105 W/m2
15:10 64.3 °F 58.7 °F 30.02 in WSW 1.0 mph 1.0 mph 82% 0.00 in 104 W/m2
15:28 64.3 °F 59.0 °F 30.01 in Calm   2.0 mph 83% 0.00 in 144 W/m2
15:34 64.2 °F 58.6 °F 30.01 in WSW 1.0 mph 2.0 mph 82% 0.00 in 146 W/m2
15:40 64.2 °F 58.6 °F 30.01 in WSW 1.0 mph 1.0 mph 82% 0.00 in 174 W/m2
15:46 64.4 °F 58.8 °F 30.01 in WSW 1.0 mph 1.0 mph 82% 0.00 in 163 W/m2
15:52 64.5 °F 58.9 °F 30.01 in Calm     82% 0.00 in 114 W/m2
15:58 64.7 °F 59.1 °F 30.01 in Calm     82% 0.00 in 69 W/m2
16:04 64.5 °F 58.9 °F 30.01 in Calm   2.0 mph 82% 0.00 in 81 W/m2
16:10 64.5 °F 58.9 °F 30.00 in Calm     82% 0.00 in 79 W/m2
16:16 64.3 °F 58.7 °F 30.00 in Calm   1.0 mph 82% 0.00 in 56 W/m2
16:22 64.3 °F 58.7 °F 30.00 in Calm     82% 0.00 in 37 W/m2
16:28 64.2 °F 58.6 °F 30.00 in Calm     82% 0.00 in 23 W/m2
16:34 64.2 °F 58.6 °F 30.00 in Calm     82% 0.00 in 21 W/m2
16:40 64.1 °F 58.8 °F 30.00 in Calm     83% 0.00 in 23 W/m2
16:46 64.2 °F 59.6 °F 30.01 in Calm     85% 0.00 in 19 W/m2
16:52 64.0 °F 59.7 °F 30.00 in Calm     86% 0.00 in 14 W/m2
16:58 63.7 °F 59.4 °F 30.00 in Calm     86% 0.00 in 44 W/m2
17:04 63.3 °F 59.0 °F 30.00 in Calm     86% 0.00 in 63 W/m2
17:10 63.3 °F 59.0 °F 30.00 in Calm     86% 0.00 in 56 W/m2
17:16 63.4 °F 59.1 °F 30.00 in Calm     86% 0.00 in 40 W/m2
17:22 63.4 °F 59.1 °F 30.00 in Calm     86% 0.00 in 26 W/m2
17:28 63.3 °F 59.0 °F 30.00 in Calm     86% 0.00 in 21 W/m2
17:34 63.2 °F 58.9 °F 30.00 in Calm   1.0 mph 86% 0.00 in 16 W/m2
17:40 63.1 °F 58.8 °F 30.00 in Calm   1.0 mph 86% 0.00 in 14 W/m2
17:46 62.9 °F 58.6 °F 30.01 in WSW 1.0 mph 1.0 mph 86% 0.00 in 12 W/m2
17:54 62.8 °F 58.9 °F 30.01 in Calm     87% 0.00 in 9 W/m2
18:00 62.6 °F 58.7 °F 30.01 in Calm     87% 0.00 in 9 W/m2
18:06 62.6 °F 59.0 °F 30.01 in Calm     88% 0.00 in 7 W/m2
18:12 62.4 °F 58.8 °F 30.01 in Calm     88% 0.00 in 0 W/m2
18:18 62.3 °F 58.7 °F 30.01 in Calm     88% 0.00 in 0 W/m2
18:26 62.2 °F 58.6 °F 30.01 in Calm     88% 0.00 in 0 W/m2
18:32 62.0 °F 58.4 °F 30.01 in Calm   1.0 mph 88% 0.00 in 0 W/m2
18:38 61.9 °F 58.6 °F 30.01 in Calm   1.0 mph 89% 0.00 in 0 W/m2
18:44 61.8 °F 58.5 °F 30.01 in Calm     89% 0.00 in 0 W/m2
18:50 61.8 °F 58.5 °F 30.01 in Calm     89% 0.00 in 0 W/m2
18:56 61.7 °F 58.4 °F 30.01 in Calm     89% 0.00 in 0 W/m2
19:02 61.7 °F 58.4 °F 30.01 in Calm     89% 0.00 in 0 W/m2
19:08 61.6 °F 58.3 °F 30.01 in Calm     89% 0.00 in 0 W/m2
19:14 61.6 °F 58.3 °F 30.01 in Calm     89% 0.00 in 0 W/m2
19:20 61.5 °F 58.5 °F 30.01 in Calm     90% 0.00 in 0 W/m2
19:26 61.4 °F 58.1 °F 30.01 in Calm   1.0 mph 89% 0.00 in 0 W/m2
19:32 61.4 °F 58.1 °F 30.01 in WSW 1.0 mph 1.0 mph 89% 0.00 in 0 W/m2
19:38 61.4 °F 58.1 °F 30.01 in WSW 1.0 mph 3.0 mph 89% 0.00 in 0 W/m2
19:44 61.5 °F 58.5 °F 30.01 in SSE 2.0 mph 4.0 mph 90% 0.00 in 0 W/m2
19:50 61.6 °F 58.3 °F 30.00 in SE 2.0 mph 2.0 mph 89% 0.00 in 0 W/m2
19:56 61.6 °F 58.3 °F 30.01 in SE 1.0 mph 2.0 mph 89% 0.00 in 0 W/m2
20:02 61.6 °F 58.3 °F 30.01 in Calm   1.0 mph 89% 0.00 in 0 W/m2
20:09 61.6 °F 58.3 °F 30.01 in Calm   1.0 mph 89% 0.00 in 0 W/m2
20:14 61.6 °F 58.3 °F 30.01 in Calm   3.0 mph 89% 0.00 in 0 W/m2
20:20 61.6 °F 58.6 °F 30.02 in Calm     90% 0.00 in 0 W/m2
20:26 61.5 °F 58.5 °F 30.02 in Calm     90% 0.00 in 0 W/m2
20:32 61.4 °F 58.4 °F 30.02 in Calm     90% 0.00 in 0 W/m2
20:38 61.2 °F 58.2 °F 30.02 in Calm     90% 0.00 in 0 W/m2
20:44 61.0 °F 58.4 °F 30.01 in SE 1.0 mph 1.0 mph 91% 0.00 in 0 W/m2
20:50 60.9 °F 58.3 °F 30.01 in SE 1.0 mph 1.0 mph 91% 0.00 in 0 W/m2
20:56 60.8 °F 58.2 °F 30.01 in Calm   1.0 mph 91% 0.00 in 0 W/m2
21:02 60.8 °F 58.2 °F 30.01 in SE 1.0 mph 2.0 mph 91% 0.00 in 0 W/m2
21:06 60.8 °F 58.2 °F 30.01 in SE 1.0 mph 2.0 mph 91% 0.00 in 0 W/m2
21:12 60.8 °F 58.2 °F 30.01 in Calm     91% 0.00 in 0 W/m2
21:18 60.7 °F 58.1 °F 30.01 in Calm     91% 0.00 in 0 W/m2
21:24 60.5 °F 57.9 °F 30.01 in Calm     91% 0.00 in 0 W/m2
21:30 60.3 °F 57.7 °F 30.01 in Calm     91% 0.00 in 0 W/m2
21:36 60.2 °F 57.6 °F 30.02 in Calm     91% 0.00 in 0 W/m2
21:42 60.2 °F 57.9 °F 30.03 in Calm     92% 0.00 in 0 W/m2
21:48 60.1 °F 57.8 °F 30.03 in Calm     92% 0.00 in 0 W/m2
21:54 60.0 °F 57.7 °F 30.03 in Calm     92% 0.00 in 0 W/m2
22:00 59.9 °F 57.6 °F 30.02 in Calm     92% 0.00 in 0 W/m2
22:06 59.9 °F 57.6 °F 30.03 in Calm     92% 0.00 in 0 W/m2
22:12 59.9 °F 57.6 °F 30.02 in Calm     92% 0.00 in 0 W/m2
22:18 59.8 °F 57.5 °F 30.03 in Calm     92% 0.00 in 0 W/m2
22:20 59.8 °F 57.5 °F 30.03 in Calm     92% 0.00 in 0 W/m2
22:26 59.7 °F 57.4 °F 30.03 in Calm     92% 0.00 in 0 W/m2
22:32 59.7 °F 57.7 °F 30.03 in Calm     93% 0.00 in 0 W/m2
22:44 59.7 °F 57.7 °F 30.03 in Calm     93% 0.00 in 0 W/m2
22:50 59.8 °F 57.8 °F 30.03 in Calm     93% 0.00 in 0 W/m2
22:56 59.8 °F 57.8 °F 30.03 in Calm     93% 0.00 in 0 W/m2
23:02 59.8 °F 57.8 °F 30.02 in Calm     93% 0.00 in 0 W/m2
23:08 59.9 °F 57.9 °F 30.02 in Calm     93% 0.00 in 0 W/m2
23:16 59.9 °F 57.9 °F 30.03 in Calm     93% 0.00 in 0 W/m2
23:22 59.9 °F 57.9 °F 30.02 in Calm     93% 0.00 in 0 W/m2
23:28 59.9 °F 57.9 °F 30.02 in Calm     93% 0.00 in 0 W/m2
23:32 59.9 °F 57.9 °F 30.02 in Calm     93% 0.00 in 0 W/m2
23:38 60.0 °F 58.0 °F 30.02 in Calm     93% 0.00 in 0 W/m2
23:44 60.1 °F 58.1 °F 30.01 in SE 1.0 mph 1.0 mph 93% 0.00 in 0 W/m2
23:50 60.2 °F 58.2 °F 30.01 in SE 1.0 mph 1.0 mph 93% 0.00 in 0 W/m2
23:56 60.2 °F 58.2 °F 30.01 in SE 1.0 mph 1.0 mph 93% 0.00 in 0 W/m2
Country Meadow, Clay, NY, USA
Compliments of Weather Underground - 2 mb